Hlavní strana
METAR-TAF:

METAR-TAF

Letiště :

Jönköping, Švédsko

zeměpisná šířka: 57-46N, zeměpisná délka: 014-05E, výška: 226 m

Aktuální stav počasí

Zpráva byla vytvořena před 36 minutami, v 22:20 UTC
Bezvětří
Teplota 6°C
Vlhkost vzduchu 93%
Tlak 1032 hPa
Viditelnost 10 km a více
Žádná oblačnost pod 1500 m, nevyskytují se cumulonimby.

METAR: ESGJ 252220Z 00000KT CAVOK 06/05 Q1032

Čas: 00:56 (22:56 UTC)

Předpověď počasí

Zpráva byla vytvořena před 2 hodinami a 26 minutami, v 20:30 UTC
Předpověď platná od 25 v 21 UTC do 26 v 01 UTC
vítr z různých směrů 2 kt
Viditelnost 10 km a více
Žádná oblačnost pod 1500 m, nevyskytují se cumulonimby.
Pravděpodobnost 40%
od 26 v 00 UTC do 26 v 01 UTC
Viditelnost: 4000 m
Přízemní mlha

TAF: ESGJ 252030Z 2521/2601 VRB02KT CAVOK PROB40 2600/2601 4000 MIFG

Stav a předpovědi počasí z více než 4 000 letišť (zprávy METAR a TAF).

Červené a žluté tečky na mapě představují dostupné meteorologické stanice.

Když kurzor umístíte na tečku, zobrazí se název stanice.

Pak kliknutím zobrazíte stav a předpověď počasí.

Chcete-li změnit mapu, kliknutím na zelené tlačítko se znaménkem +mapu přiblížíte, kliknutím na zelené tlačítko se znaménkem – mapu oddálíte a kliknutím na zelené šipky přejdete na sousední mapy.


METAR-TAF: